• Join FlightAware (Why Join?)
  • Login
  • US Flag 
Gobble Gobble! 
10:10PM EST


 

Airport Tracker/Info


-or-


 

Live Flight TrackerFlight Track Log ✈ RPA3314 ✈ 10-Oct-2013 ✈ KSTL - KPHL

Flight Track Log - Related Links

Times and Time Zones

All times are in EDT time to prevent confusion due to time zone crossing. See the RPA3314 flight status page for this flight to view local times or setup timezone preferences in your user account.

Time Position Orientation Groundspeed Altitude Reporting Facility
EDT Latitude Longitude Course Direction KTS MPH feet Rate Location/Type
05:44PM 38.7333 -90.2833 71° East 183 211 2,500  Level Gateway (St. Louis) TRACON
05:45PM 38.7333 -90.2167 90° East 233 268 4,500 2,400 Climbing Gateway (St. Louis) TRACON
05:46PM 38.7333 -90.1167 90° East 281 323 7,100 2,460 Climbing Gateway (St. Louis) TRACON
05:47PM 38.7433 -90.0253 82° East 276 318 9,300 2,160 Climbing Kansas City Center
05:48PM 38.7544 -89.9133 83° East 307 353 11,400 2,040 Climbing Kansas City Center
05:49PM 38.8680 -89.5009 78° East  Level Estimated
05:49PM 38.7656 -89.7958 83° East 327 376 13,600  Level Kansas City Center
05:50PM 38.8860 -89.3649 71° East  Level Estimated
05:50PM 38.7789 -89.6581 83° East 344 396 15,900  Level Kansas City Center
05:51PM 38.7903 -89.5286 84° East 362 417 17,800 1,860 Climbing Kansas City Center
05:52PM 38.8078 -89.3858 81° East 375 432 19,800 1,740 Climbing Kansas City Center
05:53PM 38.8253 -89.2497 81° East 385 443 21,400 1,620 Climbing Kansas City Center
05:54PM 38.8444 -89.0972 81° East 400 460 23,200 1,560 Climbing Kansas City Center
05:55PM 38.8611 -88.9647 81° East 408 470 24,700 1,320 Climbing Kansas City Center
05:56PM 38.8825 -88.8164 79° East 419 482 25,900 1,080 Climbing Kansas City Center
05:57PM 38.8992 -88.6622 82° East 432 497 27,000 1,140 Climbing Kansas City Center
05:58PM 38.9228 -88.4817 80° East 444 511 28,300 1,140 Climbing Kansas City Center
06:00PM 38.9636 -88.3294 71° East 446 513 29,400 1,020 Climbing Kansas City Center
06:01PM 39.0072 -88.1756 70° East 452 520 30,500 840 Climbing Kansas City Center
06:01PM 39.0375 -88.0539 72° East 455 524 31,000 240 Climbing Indianapolis Center
06:02PM 39.0675 -87.8903 77° East 465 535 31,000  Level Indianapolis Center
06:03PM 39.0961 -87.7297 77° East 462 532 31,000  Level Indianapolis Center
06:04PM 39.1300 -87.5414 77° East 462 532 31,000  Level Indianapolis Center
06:05PM 39.1600 -87.3822 76° East 460 529 31,000  Level Indianapolis Center
06:06PM 39.2092 -87.2336 67° East 454 522 31,000  Level Indianapolis Center
06:08PM 39.2578 -87.0864 67° East 450 518 31,000  Level Indianapolis Center
06:09PM 39.3056 -86.9378 67° East 450 518 31,000  Level Indianapolis Center
06:10PM 39.3642 -86.7600 67° East 451 519 31,000  Level Indianapolis Center
06:11PM 39.4128 -86.6103 67° East 454 522 31,000  Level Indianapolis Center
06:12PM 39.4578 -86.4608 69° East 452 520 31,000  Level Indianapolis Center
06:13PM 39.4808 -86.3036 79° East 452 520 31,000  Level Indianapolis Center
06:14PM 39.5036 -86.1456 79° East 455 524 31,000  Level Indianapolis Center
06:15PM 39.5308 -85.9567 79° East 452 520 31,000  Level Indianapolis Center
06:16PM 39.5544 -85.7983 79° East 452 520 31,000  Level Indianapolis Center
06:17PM 39.5769 -85.6383 80° East 454 522 31,000  Level Indianapolis Center
06:18PM 39.5997 -85.4778 80° East 456 525 31,000  Level Indianapolis Center
06:19PM 39.6214 -85.3181 80° East 453 521 31,000  Level Indianapolis Center
06:20PM 39.6489 -85.1275 79° East 451 519 31,000  Level Indianapolis Center
06:21PM 39.6703 -84.9694 80° East 448 516 31,000  Level Indianapolis Center
06:22PM 39.6925 -84.8008 80° East 447 514 31,000  Level Indianapolis Center
06:23PM 39.7136 -84.6431 80° East 445 512 31,000  Level Indianapolis Center
06:24PM 39.7333 -84.4853 81° East 443 510 31,000  Level Indianapolis Center
06:25PM 39.7536 -84.3275 80° East 444 511 31,000  Level Indianapolis Center
06:26PM 39.7742 -84.1714 80° East 441 507 31,000  Level Indianapolis Center
06:27PM 39.7983 -83.9842 80° East 439 505 31,000  Level Indianapolis Center
06:28PM 39.8175 -83.8283 81° East 437 503 31,000  Level Indianapolis Center
06:29PM 39.8361 -83.6725 81° East 438 504 31,000  Level Indianapolis Center
06:30PM 39.8567 -83.4989 81° East 441 507 31,000  Level Indianapolis Center
06:31PM 39.8753 -83.3422 81° East 441 507 31,000  Level Indianapolis Center
06:32PM 39.8936 -83.1883 81° East 435 501 31,000  Level Indianapolis Center
06:33PM 39.9119 -83.0333 81° East 433 498 31,000  Level Indianapolis Center
06:34PM 39.9303 -82.8775 81° East 436 502 31,000  Level Indianapolis Center
06:35PM 39.9472 -82.7225 82° East 434 499 31,000  Level Indianapolis Center
06:36PM 39.9678 -82.5361 82° East 434 499 31,000  Level Indianapolis Center
06:38PM 39.9842 -82.3800 82° East 436 502 31,000  Level Indianapolis Center
06:39PM 40.0011 -82.2278 82° East 430 495 31,000  Level Indianapolis Center
06:40PM 40.0181 -82.0744 82° East 428 493 31,000  Level Indianapolis Center
06:41PM 40.0339 -81.9211 82° East 429 494 31,000  Level Indianapolis Center
06:42PM 40.0528 -81.7439 82° East 426 490 31,000  Level Indianapolis Center
06:43PM 40.0686 -81.5908 82° East 424 488 31,000  Level Indianapolis Center
06:44PM 40.0844 -81.4383 82° East 424 488 31,000  Level Indianapolis Center
06:45PM 40.0994 -81.2856 83° East 423 487 31,000  Level Indianapolis Center
06:46PM 40.1131 -81.1325 83° East 422 486 31,000  Level Indianapolis Center
06:47PM 40.1311 -80.9589 82° East 413 475 31,000  Level Indianapolis Center
06:48PM 40.1419 -80.8494 83° East 415 478 31,000  Level Cleveland Center
06:49PM 40.1561 -80.7000 83° East 416 479 31,000  Level Cleveland Center
06:50PM 40.1703 -80.5517 83° East 415 478 31,000  Level Cleveland Center
06:51PM 40.1847 -80.4025 83° East 417 480 31,000  Level Cleveland Center
06:52PM 40.1983 -80.2544 83° East 418 481 31,000  Level Cleveland Center
06:53PM 40.2139 -80.0769 83° East 419 482 31,000  Level Cleveland Center
06:54PM 40.2272 -79.9269 83° East 422 486 31,000  Level Cleveland Center
06:55PM 40.2400 -79.7761 84° East 422 486 31,000  Level Cleveland Center
06:56PM 40.2525 -79.6219 84° East 428 493 31,000  Level Cleveland Center
06:57PM 40.2681 -79.4364 84° East 431 496 31,000  Level Cleveland Center
06:58PM 40.2783 -79.2881 85° East 431 496 31,000  Level Cleveland Center
06:59PM 40.2828 -79.1364 88° East 424 488 31,000  Level Cleveland Center
07:00PM 40.2883 -78.9844 87° East 423 487 31,000  Level Cleveland Center
07:01PM 40.2933 -78.8028 88° East 422 486 31,000  Level Cleveland Center
07:02PM 40.2969 -78.6503 88° East 424 488 31,000  Level Cleveland Center
07:03PM 40.3011 -78.5097 88° East 399 459 31,000 -240 Level Cleveland Center
07:04PM 40.3050 -78.3681 88° East 395 455 30,500 -1,440 Descending Cleveland Center
07:05PM 40.3086 -78.1942 88° East 401 461 28,000 -2,280 Descending Cleveland Center
07:06PM 40.3111 -78.0525 89° East 397 457 25,900 -1,500 Descending Cleveland Center
07:07PM 40.3131 -77.9119 89° East 391 450 25,000 -780 Descending Cleveland Center
07:08PM 40.3106 -77.7722 91° East 389 448 24,400 -780 Descending Cleveland Center
07:09PM 40.3100 -77.6378 90° East 380 437 23,400 -1,080 Descending Cleveland Center
07:10PM 40.3064 -77.4761 92° East 375 432 22,200 -1,140 Descending Cleveland Center
07:11PM 40.3050 -77.3414 91° East 374 430 21,100 -1,140 Descending Cleveland Center
07:13PM 40.3022 -77.1778 91° East 368 423 19,800 -1,140 Descending New York Center
07:14PM 40.2964 -77.0547 94° East 345 397 18,700 -1,140 Descending New York Center
07:15PM 40.2797 -76.9364 100° East 331 381 17,600 -1,140 Descending New York Center
07:16PM 40.2939 -76.8206 81° East 325 374 16,500 -1,200 Descending New York Center
07:17PM 40.3289 -76.7092 68° East 320 368 15,300 -1,200 Descending New York Center
07:18PM 40.3631 -76.6114 65° Northeast 325 374 14,100 -1,200 Descending New York Center
07:19PM 40.4014 -76.5056 65° Northeast 325 374 12,900 -1,260 Descending New York Center
07:20PM 40.4364 -76.3856 69° East 325 374 11,600 -900 Descending New York Center
07:21PM 40.4078 -76.2825 110° East 285 328 11,100 -300 Descending New York Center
07:22PM 40.3594 -76.2050 129° Southeast 278 320 11,100  Level New York Center
07:23PM 40.3189 -76.1339 127° Southeast 272 313 11,100  Level New York Center
07:24PM 40.2644 -76.0481 130° Southeast 267 307 11,100 -180 Level New York Center
07:25PM 40.2261 -75.9717 123° Southeast 275 316 10,800 -720 Descending New York Center
07:26PM 40.1953 -75.8661 111° Southeast 275 316 9,700 -1,140 Descending New York Center
07:27PM 40.1678 -75.7769 112° Southeast 275 316 8,600 -960 Descending New York Center
07:28PM 40.1422 -75.6883 111° Southeast 269 310 7,800 -900 Descending New York Center
07:29PM 40.1167 -75.5997 111° Southeast 255 293 6,800 -900 Descending New York Center
07:30PM 40.0911 -75.5139 111° Southeast 249 287 6,000 -420 Descending New York Center
07:31PM 40.0689 -75.4417 112° Southeast 249 287 6,000  Level New York Center
07:32PM 40.0017 -75.4019 156° South 234 269 6,000  Level New York Center
07:33PM 39.9542 -75.3908 170° South 219 252 6,000  Level New York Center
07:34PM 39.9203 -75.4589 237° Southwest 177 204 6,000  Level New York Center
07:35PM 39.9008 -75.5278 250° West 193 222 6,000  Level New York Center
07:36PM 39.8828 -75.6158 255° West 233 268 6,000 -360 Level New York Center
07:37PM 39.8500 -75.7500 252° West 232 267 5,100 -660 Descending Philadelphia TRACON
07:38PM 39.8000 -75.7667 194° South 180 207 4,300 -600 Descending Philadelphia TRACON
07:39PM 39.7667 -75.7333 142° Southeast 158 182 4,000 -180 Descending Philadelphia TRACON
07:40PM 39.7833 -75.6833 67° East 171 197 4,000  Level Philadelphia TRACON
07:41PM 39.8000 -75.6167 72° East 166 191 4,000  Level Philadelphia TRACON
07:42PM 39.8000 -75.5667 90° East 150 173 4,000 -180 Level Philadelphia TRACON
07:43PM 39.8167 -75.5167 67° East 152 175 3,700 -600 Descending Philadelphia TRACON
07:44PM 39.8167 -75.4667 90° East 145 167 2,900 -780 Descending Philadelphia TRACON
07:45PM 39.8333 -75.4167 67° East 134 154 2,200 -720 Descending Philadelphia TRACON
07:46PM 39.8500 -75.3667 67° East 125 144 1,500 -660 Descending Philadelphia TRACON
07:47PM 39.8500 -75.3333 90° East 117 135 900 -600 Descending Philadelphia TRACON